Time;durP1;ratioP1;P1;durP2;ratioP2;P2;SDS_P1;SDS_P2;PMS_P1;PMS_P2;Temp;Humidity;BMP_temperature;BMP_pressure;BME280_temperature;BME280_humidity;BME280_pressure;Samples;Min_cycle;Max_cycle;Signal;HPM_P1;HPM_P2
2022/11/26 00:00:30;;;;;;;28.30;12.02;;;;;;;;;;4996097;28;20041;-79
2022/11/26 00:02:56;;;;;;;20.95;12.73;;;;;;;;;;5013308;28;20030;-78
2022/11/26 00:05:22;;;;;;;25.58;14.13;;;;;;;;;;5030215;28;20033;-79
2022/11/26 00:07:54;;;;;;;18.83;12.60;;;;;;;;;;4990006;28;20131;-76
2022/11/26 00:10:26;;;;;;;21.25;13.27;;;;;;;;;;5014817;28;20087;-79
2022/11/26 00:12:51;;;;;;;15.00;10.95;;;;;;;;;;5012754;28;20409;-78
2022/11/26 00:15:21;;;;;;;25.90;13.10;;;;;;;;;;5013831;28;20504;-78
2022/11/26 00:17:47;;;;;;;;;;;;;;;;;;5013662;28;20037;-79
2022/11/26 00:20:13;;;;;;;23.05;11.77;;;;;;;;;;5016901;28;19949;-78
2022/11/26 00:22:43;;;;;;;14.13;11.05;;;;;;;;;;5017597;28;20096;-79
2022/11/26 00:25:21;;;;;;;15.55;11.48;;;;;;;;;;5012419;28;20030;-78
2022/11/26 00:27:48;;;;;;;20.88;10.98;;;;;;;;;;5013142;28;20763;-78
2022/11/26 00:30:17;;;;;;;13.55;10.05;;;;;;;;;;4993282;28;20125;-79
2022/11/26 00:32:43;;;;;;;16.55;10.13;;;;;;;;;;5015834;28;20061;-78
2022/11/26 00:35:09;;;;;;;14.48;9.27;;;;;;;;;;5012625;28;20038;-79
2022/11/26 00:37:40;;;;;;;10.00;9.00;;;;;;;;;;5014650;28;20053;-79
2022/11/26 00:40:06;;;;;;;16.17;9.75;;;;;;;;;;5032813;28;20030;-77
2022/11/26 00:42:32;;;;;;;11.50;8.80;;;;;;;;;;5013690;28;20555;-77
2022/11/26 00:44:58;;;;;;;13.88;8.20;;;;;;;;;;5008706;28;20036;-77
2022/11/26 00:47:23;;;;;;;10.90;9.52;;;;;;;;;;5006160;28;20049;-77
2022/11/26 00:49:49;;;;;;;10.73;8.45;;;;;;;;;;5006722;28;20040;-77
2022/11/26 00:52:33;;;;;;;21.05;9.32;;;;;;;;;;5012531;28;20600;-78
2022/11/26 00:55:06;;;;;;;12.73;8.65;;;;;;;;;;5007406;28;20053;-77
2022/11/26 00:57:31;;;;;;;10.73;9.05;;;;;;;;;;5005449;28;20108;-77
2022/11/26 00:59:57;;;;;;;13.55;8.98;;;;;;;;;;5009282;28;20117;-77
2022/11/26 01:02:22;;;;;;;15.38;9.32;;;;;;;;;;5011203;28;20644;-77
2022/11/26 01:04:48;;;;;;;13.30;9.45;;;;;;;;;;5010794;28;20405;-77
2022/11/26 01:07:13;;;;;;;18.20;9.43;;;;;;;;;;5008422;28;20038;-78
2022/11/26 01:09:41;;;;;;;10.65;9.55;;;;;;;;;;5008383;28;20065;-77
2022/11/26 01:12:13;;;;;;;11.25;8.90;;;;;;;;;;5016171;28;20397;-78
2022/11/26 01:14:39;;;;;;;14.65;9.32;;;;;;;;;;5015809;28;20069;-78
2022/11/26 01:17:08;;;;;;;12.13;9.50;;;;;;;;;;5020621;28;20033;-78
2022/11/26 01:19:35;;;;;;;17.58;9.52;;;;;;;;;;5015743;28;20038;-77
2022/11/26 01:22:00;;;;;;;15.18;8.52;;;;;;;;;;5018250;28;20049;-78
2022/11/26 01:24:26;;;;;;;15.55;9.30;;;;;;;;;;5020290;28;20086;-79
2022/11/26 01:26:51;;;;;;;11.45;8.63;;;;;;;;;;5018470;28;20030;-79
2022/11/26 01:29:18;;;;;;;15.52;9.32;;;;;;;;;;5020446;28;20121;-78
2022/11/26 01:31:44;;;;;;;14.05;9.18;;;;;;;;;;5017053;28;20045;-79
2022/11/26 01:34:10;;;;;;;12.52;9.13;;;;;;;;;;5020923;28;20045;-79
2022/11/26 01:36:38;;;;;;;10.77;8.95;;;;;;;;;;5027981;28;20654;-78
2022/11/26 01:39:15;;;;;;;11.70;9.77;;;;;;;;;;5019125;28;20056;-79
2022/11/26 01:41:44;;;;;;;11.88;9.63;;;;;;;;;;5016306;28;20034;-78
2022/11/26 01:44:30;;;;;;;15.55;9.73;;;;;;;;;;5017749;28;20061;-78
2022/11/26 01:46:56;;;;;;;14.07;9.27;;;;;;;;;;5024323;28;20037;-78
2022/11/26 01:49:31;;;;;;;13.15;10.75;;;;;;;;;;5030051;28;20080;-78
2022/11/26 01:52:17;;;;;;;16.58;9.77;;;;;;;;;;5015040;28;20038;-78
2022/11/26 01:54:43;;;;;;;14.10;8.98;;;;;;;;;;5014821;28;20039;-77
2022/11/26 01:57:14;;;;;;;11.55;9.98;;;;;;;;;;5016006;28;20378;-78
2022/11/26 01:59:43;;;;;;;15.98;10.25;;;;;;;;;;5013447;28;20058;-78
2022/11/26 02:02:10;;;;;;;16.35;10.50;;;;;;;;;;5014160;28;20033;-78
2022/11/26 02:04:43;;;;;;;17.48;10.82;;;;;;;;;;5018734;28;20042;-78
2022/11/26 02:07:09;;;;;;;16.00;10.75;;;;;;;;;;5012237;28;20029;-78
2022/11/26 02:09:35;;;;;;;12.40;11.18;;;;;;;;;;5015588;28;20085;-78
2022/11/26 02:12:00;;;;;;;18.13;11.02;;;;;;;;;;5014064;28;20041;-77
2022/11/26 02:14:44;;;;;;;13.55;10.90;;;;;;;;;;5016446;28;20033;-78
2022/11/26 02:17:28;;;;;;;10.70;8.55;;;;;;;;;;5011983;28;20049;-78
2022/11/26 02:20:02;;;;;;;11.55;9.40;;;;;;;;;;5014932;28;20469;-77
2022/11/26 02:22:48;;;;;;;10.00;9.00;;;;;;;;;;5010559;28;20030;-77
2022/11/26 02:25:26;;;;;;;10.07;9.02;;;;;;;;;;5009764;28;20061;-78
2022/11/26 02:28:10;;;;;;;10.77;9.63;;;;;;;;;;5009921;28;20125;-77
2022/11/26 02:30:40;;;;;;;15.02;9.52;;;;;;;;;;5009917;28;20454;-78
2022/11/26 02:33:41;;;;;;;18.85;10.52;;;;;;;;;;5011999;28;20030;-78
2022/11/26 02:36:13;;;;;;;9.98;9.07;;;;;;;;;;5009952;28;20448;-78
2022/11/26 02:38:40;;;;;;;14.50;9.25;;;;;;;;;;5010653;28;20025;-77
2022/11/26 02:41:06;;;;;;;15.60;10.25;;;;;;;;;;5011772;28;20048;-78
2022/11/26 02:43:34;;;;;;;14.75;9.85;;;;;;;;;;5011967;28;20172;-78
2022/11/26 02:46:07;;;;;;;10.73;9.65;;;;;;;;;;5006091;28;20038;-77
2022/11/26 02:48:37;;;;;;;15.75;9.68;;;;;;;;;;5004651;28;20466;-78
2022/11/26 02:51:19;;;;;;;12.98;9.23;;;;;;;;;;5006423;28;20036;-78
2022/11/26 02:53:45;;;;;;;13.18;9.63;;;;;;;;;;5009318;28;20037;-78
2022/11/26 02:56:20;;;;;;;12.10;8.93;;;;;;;;;;5008133;28;20044;-78
2022/11/26 02:58:48;;;;;;;15.60;9.52;;;;;;;;;;5012011;28;20041;-77
2022/11/26 03:01:39;;;;;;;12.32;9.55;;;;;;;;;;5007153;28;20038;-77
2022/11/26 03:04:09;;;;;;;12.73;9.25;;;;;;;;;;5006572;28;20111;-77
2022/11/26 03:06:37;;;;;;;18.52;9.45;;;;;;;;;;5007262;28;20029;-78
2022/11/26 03:09:03;;;;;;;13.07;10.20;;;;;;;;;;5009750;28;20390;-78
2022/11/26 03:11:28;;;;;;;11.18;9.07;;;;;;;;;;5001849;28;20060;-78
2022/11/26 03:13:54;;;;;;;16.52;9.85;;;;;;;;;;5008538;28;20040;-78
2022/11/26 03:16:20;;;;;;;16.85;9.02;;;;;;;;;;5006927;28;20128;-77
2022/11/26 03:18:45;;;;;;;11.27;10.05;;;;;;;;;;5009115;28;20112;-77
2022/11/26 03:21:11;;;;;;;13.30;9.43;;;;;;;;;;5008845;28;20045;-77
2022/11/26 03:23:36;;;;;;;9.60;8.57;;;;;;;;;;5011591;28;20029;-77
2022/11/26 03:26:02;;;;;;;10.52;8.93;;;;;;;;;;5004418;28;20084;-78
2022/11/26 03:28:28;;;;;;;17.25;9.15;;;;;;;;;;5005930;28;20426;-78
2022/11/26 03:30:53;;;;;;;9.55;8.73;;;;;;;;;;5010943;28;20042;-77
2022/11/26 03:33:19;;;;;;;12.57;8.20;;;;;;;;;;4999851;28;20041;-78
2022/11/26 03:35:47;;;;;;;9.82;8.43;;;;;;;;;;5013446;28;20044;-78
2022/11/26 03:38:13;;;;;;;11.85;8.38;;;;;;;;;;5008567;28;20105;-77
2022/11/26 03:40:38;;;;;;;10.73;8.18;;;;;;;;;;5005312;28;20121;-78
2022/11/26 03:43:04;;;;;;;11.75;8.88;;;;;;;;;;5007135;28;20846;-78
2022/11/26 03:45:30;;;;;;;14.60;9.10;;;;;;;;;;5010638;28;20045;-78
2022/11/26 03:47:55;;;;;;;18.60;8.75;;;;;;;;;;5008286;28;20033;-78
2022/11/26 03:50:21;;;;;;;10.82;8.85;;;;;;;;;;5008498;28;20030;-77
2022/11/26 03:52:47;;;;;;;11.85;8.93;;;;;;;;;;5002747;28;20038;-78
2022/11/26 03:55:12;;;;;;;14.50;9.63;;;;;;;;;;5008873;28;20504;-78
2022/11/26 03:57:38;;;;;;;11.93;9.93;;;;;;;;;;5009558;28;20160;-78
2022/11/26 04:00:05;;;;;;;14.98;9.48;;;;;;;;;;5008693;28;20528;-78
2022/11/26 04:02:32;;;;;;;13.18;9.43;;;;;;;;;;5009964;28;20043;-78
2022/11/26 04:04:57;;;;;;;9.77;8.88;;;;;;;;;;5003466;28;20037;-78
2022/11/26 04:07:23;;;;;;;10.40;9.43;;;;;;;;;;5011758;28;20034;-78
2022/11/26 04:09:49;;;;;;;14.43;9.60;;;;;;;;;;5004006;28;20043;-78
2022/11/26 04:12:14;;;;;;;16.63;10.13;;;;;;;;;;5009092;28;20450;-78
2022/11/26 04:14:40;;;;;;;16.48;10.23;;;;;;;;;;4971713;28;20037;-77
2022/11/26 04:17:05;;;;;;;15.00;10.05;;;;;;;;;;5009938;28;20489;-78
2022/11/26 04:19:31;;;;;;;19.60;9.82;;;;;;;;;;5005364;28;20036;-79
2022/11/26 04:21:56;;;;;;;10.70;9.55;;;;;;;;;;5008314;28;20045;-77
2022/11/26 04:24:22;;;;;;;14.48;9.43;;;;;;;;;;5003877;28;20053;-78
2022/11/26 04:26:47;;;;;;;10.80;9.68;;;;;;;;;;5003319;28;20036;-78
2022/11/26 04:29:13;;;;;;;15.65;9.55;;;;;;;;;;5008840;28;20030;-78
2022/11/26 04:31:39;;;;;;;12.35;9.10;;;;;;;;;;5008480;28;20080;-77
2022/11/26 04:34:04;;;;;;;14.00;9.90;;;;;;;;;;5009564;28;20048;-77
2022/11/26 04:36:30;;;;;;;15.57;10.48;;;;;;;;;;5007163;28;20046;-78
2022/11/26 04:38:57;;;;;;;16.95;10.02;;;;;;;;;;5011138;28;20293;-77
2022/11/26 04:41:23;;;;;;;17.50;10.75;;;;;;;;;;5009781;28;20037;-77
2022/11/26 04:43:48;;;;;;;15.88;11.07;;;;;;;;;;5010244;28;20038;-78
2022/11/26 04:46:14;;;;;;;20.17;11.15;;;;;;;;;;5005401;28;20034;-78
2022/11/26 04:48:40;;;;;;;14.75;10.43;;;;;;;;;;5008619;28;20038;-77
2022/11/26 04:51:05;;;;;;;16.08;10.30;;;;;;;;;;5008306;28;20481;-77
2022/11/26 04:53:31;;;;;;;18.02;11.75;;;;;;;;;;5009228;28;20037;-78
2022/11/26 04:55:56;;;;;;;13.80;9.45;;;;;;;;;;5008275;28;20057;-78
2022/11/26 04:58:22;;;;;;;17.23;10.90;;;;;;;;;;5007659;28;20038;-78
2022/11/26 05:00:48;;;;;;;13.13;9.95;;;;;;;;;;5008057;28;20048;-78
2022/11/26 05:03:13;;;;;;;11.45;9.35;;;;;;;;;;5006921;28;20037;-77
2022/11/26 05:05:39;;;;;;;10.45;8.80;;;;;;;;;;5007241;28;20058;-78
2022/11/26 05:08:05;;;;;;;12.48;8.80;;;;;;;;;;4995266;28;20221;-78
2022/11/26 05:10:31;;;;;;;12.57;9.00;;;;;;;;;;4996343;28;20045;-78
2022/11/26 05:12:57;;;;;;;9.88;8.90;;;;;;;;;;4983225;28;20092;-77
2022/11/26 05:15:23;;;;;;;16.48;8.55;;;;;;;;;;4981622;28;20030;-78
2022/11/26 05:17:48;;;;;;;15.68;9.20;;;;;;;;;;4986898;28;20034;-78
2022/11/26 05:20:14;;;;;;;16.80;12.13;;;;;;;;;;4983248;28;20121;-78
2022/11/26 05:22:41;;;;;;;14.65;11.20;;;;;;;;;;4982431;28;20035;-79
2022/11/26 05:25:06;;;;;;;11.38;9.32;;;;;;;;;;4984027;28;20374;-78
2022/11/26 05:27:32;;;;;;;10.85;9.40;;;;;;;;;;4983639;28;20516;-77
2022/11/26 05:29:58;;;;;;;13.75;10.18;;;;;;;;;;4981374;28;20046;-77
2022/11/26 05:32:23;;;;;;;16.20;11.10;;;;;;;;;;4986034;28;20396;-78
2022/11/26 05:34:49;;;;;;;15.50;11.88;;;;;;;;;;4985872;28;20038;-77
2022/11/26 05:37:14;;;;;;;12.02;9.93;;;;;;;;;;4981086;28;20043;-77
2022/11/26 05:39:40;;;;;;;21.23;10.95;;;;;;;;;;4981465;28;20046;-78
2022/11/26 05:42:05;;;;;;;14.18;10.57;;;;;;;;;;4987164;28;20477;-77
2022/11/26 05:44:31;;;;;;;17.55;10.75;;;;;;;;;;4984261;28;20030;-78
2022/11/26 05:46:56;;;;;;;14.05;11.48;;;;;;;;;;4984490;28;20038;-78
2022/11/26 05:49:22;;;;;;;12.38;10.93;;;;;;;;;;4985757;28;20717;-77
2022/11/26 05:51:48;;;;;;;14.95;11.45;;;;;;;;;;4986375;28;20035;-78
2022/11/26 05:54:14;;;;;;;18.50;10.77;;;;;;;;;;4982340;28;20084;-78
2022/11/26 05:56:41;;;;;;;16.50;11.35;;;;;;;;;;4984216;28;20119;-77
2022/11/26 05:59:07;;;;;;;18.45;11.50;;;;;;;;;;4990332;28;20049;-79
2022/11/26 06:01:33;;;;;;;14.05;10.88;;;;;;;;;;4985049;28;20031;-77
2022/11/26 06:03:58;;;;;;;27.10;17.27;;;;;;;;;;4985918;28;20084;-78
2022/11/26 06:06:24;;;;;;;21.50;11.38;;;;;;;;;;4990250;28;20782;-78
2022/11/26 06:08:49;;;;;;;18.52;10.60;;;;;;;;;;4985911;28;20043;-79
2022/11/26 06:11:15;;;;;;;13.85;10.70;;;;;;;;;;4989430;28;20034;-78
2022/11/26 06:13:41;;;;;;;14.15;10.43;;;;;;;;;;4986460;28;20045;-78
2022/11/26 06:16:07;;;;;;;11.02;9.90;;;;;;;;;;4987959;28;20038;-78
2022/11/26 06:18:32;;;;;;;19.95;10.93;;;;;;;;;;4990528;28;20030;-79
2022/11/26 06:21:02;;;;;;;30.58;15.90;;;;;;;;;;4985954;28;20639;-78
2022/11/26 06:23:28;;;;;;;28.70;15.50;;;;;;;;;;4978049;28;20034;-78
2022/11/26 06:25:54;;;;;;;22.70;14.38;;;;;;;;;;4983328;28;20049;-79
2022/11/26 06:28:19;;;;;;;23.83;14.32;;;;;;;;;;4979235;28;20395;-79
2022/11/26 06:30:45;;;;;;;27.20;14.77;;;;;;;;;;4979822;28;20073;-77
2022/11/26 06:33:11;;;;;;;27.35;14.57;;;;;;;;;;4979809;28;20038;-78
2022/11/26 06:35:36;;;;;;;33.45;18.77;;;;;;;;;;4979205;28;20774;-77
2022/11/26 06:38:02;;;;;;;29.40;17.33;;;;;;;;;;4979237;28;20042;-78
2022/11/26 06:40:28;;;;;;;30.85;18.08;;;;;;;;;;4983067;28;20478;-78
2022/11/26 06:42:53;;;;;;;25.70;14.50;;;;;;;;;;4985447;28;20042;-77
2022/11/26 06:45:21;;;;;;;21.63;12.40;;;;;;;;;;4981443;28;20096;-77
2022/11/26 06:47:47;;;;;;;21.02;12.70;;;;;;;;;;4987379;28;20046;-78
2022/11/26 06:50:15;;;;;;;16.48;11.27;;;;;;;;;;4987344;28;20655;-77
2022/11/26 06:52:41;;;;;;;20.90;12.40;;;;;;;;;;4985669;28;20065;-78
2022/11/26 06:55:07;;;;;;;19.77;12.10;;;;;;;;;;4988539;28;20089;-77
2022/11/26 06:57:32;;;;;;;16.35;11.90;;;;;;;;;;4994659;28;20398;-77
2022/11/26 06:59:58;;;;;;;19.75;11.50;;;;;;;;;;4982830;28;20093;-77
2022/11/26 07:02:23;;;;;;;18.67;11.60;;;;;;;;;;4986612;28;20065;-78
2022/11/26 07:04:49;;;;;;;19.98;11.27;;;;;;;;;;4986750;28;20050;-77
2022/11/26 07:07:14;;;;;;;19.10;12.13;;;;;;;;;;4985511;28;20030;-78
2022/11/26 07:09:40;;;;;;;19.23;11.93;;;;;;;;;;4987661;28;20034;-78
2022/11/26 07:12:06;;;;;;;13.88;10.90;;;;;;;;;;4984146;28;20057;-78
2022/11/26 07:14:32;;;;;;;20.40;12.13;;;;;;;;;;4994529;28;20061;-78
2022/11/26 07:16:57;;;;;;;14.73;11.82;;;;;;;;;;4987402;28;20446;-77
2022/11/26 07:19:23;;;;;;;25.50;12.27;;;;;;;;;;4987009;28;20025;-77
2022/11/26 07:21:49;;;;;;;20.63;12.20;;;;;;;;;;4985053;28;20034;-79
2022/11/26 07:24:15;;;;;;;20.15;12.70;;;;;;;;;;4987716;28;20034;-77
2022/11/26 07:26:41;;;;;;;23.13;13.10;;;;;;;;;;4989396;28;20038;-77
2022/11/26 07:29:07;;;;;;;20.67;12.38;;;;;;;;;;4986139;28;20100;-77
2022/11/26 07:31:32;;;;;;;21.40;12.88;;;;;;;;;;4983707;28;20030;-78
2022/11/26 07:33:58;;;;;;;18.92;12.60;;;;;;;;;;4986229;28;20053;-77
2022/11/26 07:36:28;;;;;;;14.30;11.77;;;;;;;;;;4989376;28;20030;-78
2022/11/26 07:38:58;;;;;;;14.20;12.65;;;;;;;;;;4986422;28;20561;-77
2022/11/26 07:41:25;;;;;;;16.95;11.55;;;;;;;;;;4990031;28;20440;-77
2022/11/26 07:43:51;;;;;;;20.75;12.35;;;;;;;;;;4985735;28;20039;-78
2022/11/26 07:46:20;;;;;;;15.27;12.43;;;;;;;;;;4993033;28;20118;-79
2022/11/26 07:48:46;;;;;;;12.48;11.18;;;;;;;;;;4981738;28;20585;-77
2022/11/26 07:51:19;;;;;;;18.80;13.02;;;;;;;;;;4987957;28;20086;-77
2022/11/26 07:53:45;;;;;;;22.05;12.27;;;;;;;;;;4991541;28;20118;-78
2022/11/26 07:56:11;;;;;;;16.25;13.02;;;;;;;;;;4991866;28;20042;-77
2022/11/26 07:58:37;;;;;;;13.35;12.00;;;;;;;;;;4992806;28;20037;-78
2022/11/26 08:01:11;;;;;;;12.98;11.20;;;;;;;;;;4981119;28;20046;-77
2022/11/26 08:03:39;;;;;;;14.15;11.57;;;;;;;;;;4991328;28;20033;-79
2022/11/26 08:06:10;;;;;;;23.75;12.27;;;;;;;;;;4993062;28;20034;-78
2022/11/26 08:08:37;;;;;;;13.15;11.80;;;;;;;;;;4987850;28;20031;-79
2022/11/26 08:11:04;;;;;;;14.40;11.70;;;;;;;;;;4987695;28;20042;-79
2022/11/26 08:13:30;;;;;;;19.40;12.07;;;;;;;;;;4991300;28;20034;-78
2022/11/26 08:15:55;;;;;;;17.23;11.98;;;;;;;;;;4988221;28;20113;-78
2022/11/26 08:18:21;;;;;;;14.13;11.85;;;;;;;;;;4983529;28;20125;-78
2022/11/26 08:20:54;;;;;;;16.63;11.38;;;;;;;;;;4985883;28;20540;-78
2022/11/26 08:23:21;;;;;;;12.82;11.68;;;;;;;;;;4986137;28;20585;-78
2022/11/26 08:25:47;;;;;;;21.13;12.13;;;;;;;;;;4988438;28;20671;-78
2022/11/26 08:28:13;;;;;;;13.60;11.48;;;;;;;;;;4984886;28;20058;-78
2022/11/26 08:30:38;;;;;;;18.42;12.07;;;;;;;;;;4986114;28;20034;-79
2022/11/26 08:33:04;;;;;;;16.60;11.65;;;;;;;;;;4989176;28;20073;-79
2022/11/26 08:35:29;;;;;;;14.02;10.68;;;;;;;;;;4990032;28;21327;-80
2022/11/26 08:37:55;;;;;;;18.02;10.80;;;;;;;;;;4987259;28;20038;-78
2022/11/26 08:40:20;;;;;;;11.90;10.13;;;;;;;;;;4985103;28;20030;-79
2022/11/26 08:42:46;;;;;;;18.52;11.20;;;;;;;;;;4986009;28;20472;-78
2022/11/26 08:45:11;;;;;;;18.23;11.65;;;;;;;;;;4984722;28;20038;-77
2022/11/26 08:47:37;;;;;;;13.15;10.25;;;;;;;;;;4983145;28;20034;-78
2022/11/26 08:50:04;;;;;;;17.45;11.75;;;;;;;;;;4982916;28;20446;-78
2022/11/26 08:52:29;;;;;;;19.60;11.35;;;;;;;;;;4980919;28;20394;-78
2022/11/26 08:54:55;;;;;;;15.18;11.48;;;;;;;;;;4987601;28;20471;-78
2022/11/26 08:57:20;;;;;;;12.68;10.95;;;;;;;;;;4983716;28;20042;-79
2022/11/26 08:59:46;;;;;;;13.57;12.13;;;;;;;;;;4979636;28;20122;-77
2022/11/26 09:02:11;;;;;;;15.02;13.35;;;;;;;;;;4983804;28;20066;-77
2022/11/26 09:04:37;;;;;;;17.42;13.95;;;;;;;;;;4988136;28;20034;-78
2022/11/26 09:07:02;;;;;;;17.23;11.20;;;;;;;;;;4986388;28;20042;-78
2022/11/26 09:09:28;;;;;;;14.90;10.57;;;;;;;;;;4980799;28;20062;-77
2022/11/26 09:12:00;;;;;;;14.57;11.15;;;;;;;;;;4981620;28;20073;-78
2022/11/26 09:14:30;;;;;;;19.63;11.32;;;;;;;;;;4980606;28;20034;-78
2022/11/26 09:16:56;;;;;;;;;;;;;;;;;;4987740;28;20034;-77
2022/11/26 09:19:23;;;;;;;13.30;11.23;;;;;;;;;;4985265;28;19918;-77
2022/11/26 09:21:49;;;;;;;18.92;11.55;;;;;;;;;;4978974;28;20069;-76
2022/11/26 09:24:16;;;;;;;15.27;11.45;;;;;;;;;;4986549;28;20481;-77
2022/11/26 09:26:41;;;;;;;20.80;12.48;;;;;;;;;;4984597;28;20571;-77
2022/11/26 09:29:08;;;;;;;18.70;14.55;;;;;;;;;;4987911;28;20098;-77
2022/11/26 09:31:34;;;;;;;13.27;11.25;;;;;;;;;;4995018;28;20080;-77
2022/11/26 09:34:00;;;;;;;26.58;18.50;;;;;;;;;;4991407;28;20037;-77
2022/11/26 09:36:26;;;;;;;14.68;12.05;;;;;;;;;;4990925;28;20108;-77
2022/11/26 09:38:56;;;;;;;16.33;10.23;;;;;;;;;;4992463;28;20493;-78
2022/11/26 09:41:39;;;;;;;10.75;9.70;;;;;;;;;;4989678;28;20066;-77
2022/11/26 09:44:42;;;;;;;13.40;10.10;;;;;;;;;;4988707;28;20022;-77
2022/11/26 09:47:07;;;;;;;14.52;10.45;;;;;;;;;;4982246;28;20050;-77
2022/11/26 09:49:43;;;;;;;12.18;9.88;;;;;;;;;;4989098;28;20046;-77
2022/11/26 09:52:12;;;;;;;10.65;9.65;;;;;;;;;;4990652;28;20245;-77
2022/11/26 09:54:38;;;;;;;11.77;9.85;;;;;;;;;;4991150;28;20030;-76
2022/11/26 09:57:28;;;;;;;17.90;11.27;;;;;;;;;;4989450;28;20035;-77
2022/11/26 09:59:54;;;;;;;;;;;;;;;;;;4990649;28;20038;-77
2022/11/26 10:02:19;;;;;;;14.48;10.98;;;;;;;;;;5003399;28;19979;-77
2022/11/26 10:04:46;;;;;;;12.18;10.98;;;;;;;;;;4988048;28;20035;-77
2022/11/26 10:07:46;;;;;;;12.80;11.02;;;;;;;;;;4987925;28;20049;-77
2022/11/26 10:10:20;;;;;;;21.55;11.82;;;;;;;;;;4987806;28;20486;-77
2022/11/26 10:13:18;;;;;;;12.60;11.30;;;;;;;;;;4988196;28;20089;-78
2022/11/26 10:15:52;;;;;;;12.18;10.85;;;;;;;;;;4986784;28;20042;-77
2022/11/26 10:18:36;;;;;;;12.75;11.45;;;;;;;;;;4991861;28;20072;-77
2022/11/26 10:21:19;;;;;;;10.20;9.30;;;;;;;;;;4977629;28;20047;-77
2022/11/26 10:23:56;;;;;;;10.80;9.35;;;;;;;;;;4986798;28;20112;-77
2022/11/26 10:26:31;;;;;;;12.52;9.93;;;;;;;;;;4987875;28;20038;-77
2022/11/26 10:29:20;;;;;;;14.07;10.20;;;;;;;;;;4989583;28;20026;-77
2022/11/26 10:31:47;;;;;;;10.52;9.45;;;;;;;;;;4987791;28;20069;-77
2022/11/26 10:34:18;;;;;;;12.85;10.80;;;;;;;;;;4985495;28;20039;-77
2022/11/26 10:36:46;;;;;;;10.13;9.18;;;;;;;;;;4973130;28;20043;-77
2022/11/26 10:39:14;;;;;;;11.65;9.40;;;;;;;;;;4983405;28;20118;-78
2022/11/26 10:41:40;;;;;;;11.65;9.38;;;;;;;;;;4983031;28;20042;-77
2022/11/26 10:44:27;;;;;;;17.48;11.77;;;;;;;;;;4989688;28;20421;-78
2022/11/26 10:46:53;;;;;;;10.75;9.75;;;;;;;;;;4991241;28;20034;-77
2022/11/26 10:49:25;;;;;;;10.45;9.45;;;;;;;;;;4983918;28;20046;-77
2022/11/26 10:51:55;;;;;;;10.68;8.85;;;;;;;;;;4990610;28;20035;-78
2022/11/26 10:54:37;;;;;;;10.18;9.15;;;;;;;;;;4990008;28;20078;-78
2022/11/26 10:57:09;;;;;;;10.52;9.40;;;;;;;;;;4992300;28;20661;-77
2022/11/26 10:59:43;;;;;;;20.50;14.23;;;;;;;;;;4994180;28;20038;-77
2022/11/26 11:02:15;;;;;;;11.55;9.52;;;;;;;;;;4994082;28;20034;-77
2022/11/26 11:04:44;;;;;;;13.60;11.80;;;;;;;;;;4990362;28;20409;-77
2022/11/26 11:07:39;;;;;;;12.80;9.48;;;;;;;;;;4986657;28;20166;-77
2022/11/26 11:10:08;;;;;;;11.40;9.65;;;;;;;;;;4999292;28;20426;-75
2022/11/26 11:12:35;;;;;;;11.23;9.93;;;;;;;;;;4986674;28;20114;-79
2022/11/26 11:15:16;;;;;;;12.70;10.35;;;;;;;;;;4997723;28;20303;-80
2022/11/26 11:17:43;;;;;;;17.02;10.07;;;;;;;;;;4999728;28;20034;-77
2022/11/26 11:20:15;;;;;;;11.70;10.38;;;;;;;;;;5003958;28;20058;-81
2022/11/26 11:22:44;;;;;;;13.40;9.40;;;;;;;;;;5003246;28;20038;-79
2022/11/26 11:25:28;;;;;;;13.25;8.93;;;;;;;;;;5002598;28;20034;-77
2022/11/26 11:28:00;;;;;;;15.30;9.45;;;;;;;;;;4985657;28;20070;-80
2022/11/26 11:30:29;;;;;;;10.48;9.18;;;;;;;;;;4995584;28;20037;-77
2022/11/26 11:32:56;;;;;;;11.73;9.40;;;;;;;;;;5001144;28;20034;-80
2022/11/26 11:35:25;;;;;;;10.77;8.98;;;;;;;;;;5003464;28;20046;-79
2022/11/26 11:37:53;;;;;;;9.15;8.25;;;;;;;;;;5003965;28;20038;-76
2022/11/26 11:40:26;;;;;;;10.40;8.90;;;;;;;;;;5000048;28;20034;-78
2022/11/26 11:42:58;;;;;;;10.40;8.70;;;;;;;;;;5001504;28;20044;-81
2022/11/26 11:45:55;;;;;;;12.05;9.05;;;;;;;;;;5003876;28;20033;-79
2022/11/26 11:48:42;;;;;;;12.13;9.57;;;;;;;;;;4988317;28;20070;-77
2022/11/26 11:51:19;;;;;;;13.38;9.73;;;;;;;;;;4989942;28;20038;-77
2022/11/26 11:54:10;;;;;;;13.60;9.88;;;;;;;;;;4987415;28;20034;-77
2022/11/26 11:56:51;;;;;;;12.65;9.68;;;;;;;;;;4990428;28;20065;-78
2022/11/26 11:59:57;;;;;;;16.70;10.35;;;;;;;;;;4983690;28;20525;-77
2022/11/26 12:02:40;;;;;;;10.40;9.38;;;;;;;;;;4987335;28;20077;-77
2022/11/26 12:05:24;;;;;;;14.88;9.95;;;;;;;;;;4984908;28;20108;-77
2022/11/26 12:08:04;;;;;;;13.55;10.30;;;;;;;;;;5001387;28;20050;-76
2022/11/26 12:10:37;;;;;;;14.18;9.55;;;;;;;;;;4981014;28;20030;-77
2022/11/26 12:13:06;;;;;;;13.48;9.30;;;;;;;;;;4982190;28;20026;-77
2022/11/26 12:15:41;;;;;;;10.65;9.57;;;;;;;;;;4985754;28;20462;-77
2022/11/26 12:18:27;;;;;;;10.43;8.68;;;;;;;;;;4986588;28;20049;-77
2022/11/26 12:20:57;;;;;;;12.90;8.93;;;;;;;;;;4985003;28;20046;-77
2022/11/26 12:23:30;;;;;;;14.55;9.95;;;;;;;;;;4985926;28;20033;-77
2022/11/26 12:26:28;;;;;;;12.75;9.00;;;;;;;;;;4984617;28;20030;-76
2022/11/26 12:28:56;;;;;;;11.85;9.43;;;;;;;;;;4984136;28;20078;-77
2022/11/26 12:31:35;;;;;;;11.87;9.40;;;;;;;;;;4995522;28;20154;-77
2022/11/26 12:34:30;;;;;;;10.27;9.20;;;;;;;;;;4990272;28;20164;-76
2022/11/26 12:37:05;;;;;;;16.33;9.10;;;;;;;;;;4979346;28;20489;-77
2022/11/26 12:39:54;;;;;;;12.52;8.82;;;;;;;;;;4982324;28;20034;-77
2022/11/26 12:42:24;;;;;;;73.13;23.52;;;;;;;;;;5001490;28;20042;-77
2022/11/26 12:44:51;;;;;;;14.77;10.75;;;;;;;;;;5001740;28;20046;-79
2022/11/26 12:47:25;;;;;;;16.13;9.50;;;;;;;;;;5000144;28;20037;-75
2022/11/26 12:50:17;;;;;;;18.98;8.88;;;;;;;;;;5001307;28;20054;-75
2022/11/26 12:53:02;;;;;;;256.67;74.05;;;;;;;;;;4986236;28;20038;-79
2022/11/26 12:55:40;;;;;;;58.22;35.63;;;;;;;;;;4990718;28;20040;-77
2022/11/26 12:58:15;;;;;;;11.23;9.00;;;;;;;;;;4998090;28;20035;-77
2022/11/26 13:00:40;;;;;;;17.70;11.07;;;;;;;;;;4983898;28;20474;-77
2022/11/26 13:03:14;;;;;;;13.60;8.32;;;;;;;;;;4986851;28;20101;-77
2022/11/26 13:06:24;;;;;;;10.82;8.20;;;;;;;;;;4984761;28;20042;-77
2022/11/26 13:09:01;;;;;;;10.05;8.57;;;;;;;;;;4939959;29;20116;-77
2022/11/26 13:11:50;;;;;;;9.75;8.57;;;;;;;;;;4982144;28;20046;-77
2022/11/26 13:14:32;;;;;;;10.75;8.20;;;;;;;;;;4985122;28;20041;-77
2022/11/26 13:17:14;;;;;;;9.77;8.77;;;;;;;;;;4985768;28;20081;-77
2022/11/26 13:19:58;;;;;;;14.15;9.02;;;;;;;;;;4977928;28;20058;-77
2022/11/26 13:22:46;;;;;;;8.90;7.32;;;;;;;;;;4985569;28;20036;-77
2022/11/26 13:25:23;;;;;;;11.70;7.88;;;;;;;;;;4988368;28;20045;-76
2022/11/26 13:27:58;;;;;;;8.50;7.63;;;;;;;;;;4989147;28;20037;-77
2022/11/26 13:30:46;;;;;;;10.93;7.95;;;;;;;;;;4997205;28;20046;-77
2022/11/26 13:33:34;;;;;;;11.90;7.28;;;;;;;;;;5000883;28;20101;-80
2022/11/26 13:36:24;;;;;;;9.23;7.93;;;;;;;;;;5011160;28;20041;-78
2022/11/26 13:39:01;;;;;;;8.10;7.40;;;;;;;;;;4997468;28;20097;-77
2022/11/26 13:41:51;;;;;;;9.43;7.13;;;;;;;;;;4987450;28;20039;-77
2022/11/26 13:44:25;;;;;;;11.18;8.10;;;;;;;;;;4990715;28;20125;-77
2022/11/26 13:47:03;;;;;;;10.25;7.50;;;;;;;;;;4979580;28;20177;-77
2022/11/26 13:49:28;;;;;;;8.90;7.72;;;;;;;;;;4986520;28;20042;-77
2022/11/26 13:52:15;;;;;;;8.82;7.93;;;;;;;;;;4984472;28;20047;-76
2022/11/26 13:54:48;;;;;;;10.85;7.68;;;;;;;;;;4986978;28;20049;-77
2022/11/26 13:57:21;;;;;;;9.38;7.90;;;;;;;;;;4982326;28;20138;-77
2022/11/26 13:59:49;;;;;;;15.18;7.93;;;;;;;;;;4980299;28;20035;-77
2022/11/26 14:02:36;;;;;;;9.32;7.78;;;;;;;;;;4978187;28;20078;-76
2022/11/26 14:05:08;;;;;;;14.60;7.55;;;;;;;;;;4978480;28;20045;-76
2022/11/26 14:07:34;;;;;;;10.27;7.45;;;;;;;;;;4982081;28;20126;-77
2022/11/26 14:10:02;;;;;;;17.15;8.68;;;;;;;;;;4987565;28;20038;-77
2022/11/26 14:13:02;;;;;;;8.88;7.97;;;;;;;;;;4982431;28;20035;-77
2022/11/26 14:15:39;;;;;;;9.85;8.30;;;;;;;;;;4988908;28;20077;-78
2022/11/26 14:18:13;;;;;;;9.48;8.13;;;;;;;;;;4989256;28;20042;-78
2022/11/26 14:20:56;;;;;;;10.07;7.50;;;;;;;;;;4987700;28;20237;-78
2022/11/26 14:23:43;;;;;;;8.40;7.43;;;;;;;;;;4986981;28;20046;-77
2022/11/26 14:26:12;;;;;;;14.73;7.68;;;;;;;;;;4981514;28;20034;-77
2022/11/26 14:28:38;;;;;;;9.50;7.32;;;;;;;;;;4986437;28;20118;-77
2022/11/26 14:31:12;;;;;;;13.30;7.78;;;;;;;;;;4986324;28;20117;-78
2022/11/26 14:33:43;;;;;;;11.85;7.60;;;;;;;;;;4987577;28;20041;-78
2022/11/26 14:36:49;;;;;;;11.60;7.93;;;;;;;;;;4987207;28;20041;-78
2022/11/26 14:39:15;;;;;;;12.93;7.95;;;;;;;;;;4962903;28;20226;-78
2022/11/26 14:41:41;;;;;;;8.70;7.78;;;;;;;;;;4970149;28;20486;-78
2022/11/26 14:44:12;;;;;;;8.65;7.65;;;;;;;;;;4953339;28;20088;-77
2022/11/26 14:46:39;;;;;;;10.63;7.85;;;;;;;;;;4947651;28;20553;-78